createdAt,value
2023-01-11T00:00:52.294Z,0.00
2023-01-11T00:01:52.490Z,0.00
2023-01-11T00:02:52.411Z,0.00
2023-01-11T00:03:52.515Z,0.00
2023-01-11T00:04:52.511Z,0.00
2023-01-11T00:05:52.635Z,0.00
2023-01-11T00:06:52.569Z,0.00
2023-01-11T00:07:52.440Z,0.00
2023-01-11T00:08:52.037Z,0.00
2023-01-11T00:09:52.481Z,0.00
2023-01-11T00:10:52.053Z,0.00
2023-01-11T00:11:52.556Z,0.00
2023-01-11T00:12:52.987Z,0.00
2023-01-11T00:13:51.867Z,0.00
2023-01-11T00:14:52.787Z,0.00
2023-01-11T00:15:52.459Z,0.00
2023-01-11T00:16:52.330Z,0.00
2023-01-11T00:17:52.403Z,0.00
2023-01-11T00:18:52.392Z,0.00
2023-01-11T00:19:52.105Z,0.00
2023-01-11T00:20:51.531Z,0.00
2023-01-11T00:21:51.512Z,0.00
2023-01-11T00:22:51.648Z,0.00
2023-01-11T00:23:51.647Z,0.00
2023-01-11T00:24:51.748Z,0.00
2023-01-11T00:25:51.740Z,0.00
2023-01-11T00:26:51.761Z,0.00
2023-01-11T00:27:51.873Z,0.00
2023-01-11T00:28:51.959Z,0.00
2023-01-11T00:29:51.984Z,0.00
2023-01-11T00:30:51.379Z,0.00
2023-01-11T00:31:51.903Z,0.00
2023-01-11T00:32:51.678Z,0.00
2023-01-11T00:33:52.216Z,0.00
2023-01-11T00:34:52.383Z,0.00
2023-01-11T00:35:52.057Z,0.00
2023-01-11T00:36:52.312Z,0.00
2023-01-11T00:37:52.087Z,0.00
2023-01-11T00:38:51.360Z,0.00
2023-01-11T00:39:51.418Z,0.00
2023-01-11T00:40:51.427Z,0.00
2023-01-11T00:41:51.230Z,0.00
2023-01-11T00:42:51.273Z,0.00
2023-01-11T00:43:51.344Z,0.00
2023-01-11T00:44:51.468Z,0.00
2023-01-11T00:45:51.239Z,0.00
2023-01-11T00:46:51.266Z,0.00
2023-01-11T00:47:51.269Z,0.00
2023-01-11T00:48:51.143Z,0.00
2023-01-11T00:49:51.382Z,0.00
2023-01-11T00:50:51.183Z,0.00
2023-01-11T00:51:51.191Z,0.00
2023-01-11T00:52:51.940Z,0.00
2023-01-11T00:53:51.324Z,0.00
2023-01-11T00:54:51.407Z,0.00
2023-01-11T00:55:51.421Z,0.00
2023-01-11T00:56:51.118Z,0.00
2023-01-11T00:57:51.535Z,0.00
2023-01-11T00:58:51.863Z,0.00
2023-01-11T00:59:51.662Z,0.00
2023-01-11T01:00:51.782Z,0.00
2023-01-11T01:01:51.768Z,0.00
2023-01-11T01:02:51.722Z,0.00
2023-01-11T01:03:51.887Z,0.00
2023-01-11T01:04:51.808Z,0.00
2023-01-11T01:05:51.715Z,0.00
2023-01-11T01:06:51.960Z,0.00
2023-01-11T01:07:51.786Z,0.00
2023-01-11T01:08:50.891Z,0.00
2023-01-11T01:09:51.601Z,0.00
2023-01-11T01:10:51.516Z,0.00
2023-01-11T01:11:51.686Z,0.00
2023-01-11T01:12:50.893Z,0.00
2023-01-11T01:13:51.025Z,0.00
2023-01-11T01:14:51.623Z,0.00
2023-01-11T01:15:51.073Z,0.00
2023-01-11T01:16:51.688Z,0.00
2023-01-11T01:17:51.606Z,0.00
2023-01-11T01:18:50.754Z,0.00
2023-01-11T01:19:50.773Z,0.00
2023-01-11T01:20:50.867Z,0.00
2023-01-11T01:21:51.000Z,0.00
2023-01-11T01:22:51.083Z,0.00
2023-01-11T01:23:51.002Z,0.00
2023-01-11T01:24:50.994Z,0.00
2023-01-11T01:25:50.673Z,0.00
2023-01-11T01:26:51.122Z,0.00
2023-01-11T01:27:51.216Z,0.00
2023-01-11T01:28:50.652Z,0.00
2023-01-11T01:29:51.348Z,0.00
2023-01-11T01:30:51.447Z,0.00
2023-01-11T01:31:51.453Z,0.00
2023-01-11T01:32:51.438Z,0.00
2023-01-11T01:33:51.341Z,0.00
2023-01-11T01:34:50.594Z,0.00
2023-01-11T01:35:51.403Z,0.00
2023-01-11T01:36:51.303Z,0.00
2023-01-11T01:37:51.219Z,0.00
2023-01-11T01:38:51.353Z,0.00
2023-01-11T01:39:50.587Z,0.00
2023-01-11T01:40:51.400Z,0.00
2023-01-11T01:41:51.622Z,0.00
2023-01-11T01:42:51.240Z,0.00
2023-01-11T01:43:50.813Z,0.00
2023-01-11T01:44:51.731Z,0.00
2023-01-11T01:45:50.720Z,0.00
2023-01-11T01:46:51.038Z,0.00
2023-01-11T01:47:51.272Z,0.00
2023-01-11T01:48:50.429Z,0.00
2023-01-11T01:49:50.442Z,0.00
2023-01-11T01:50:50.340Z,0.00
2023-01-11T01:51:50.571Z,0.00
2023-01-11T01:52:50.672Z,0.00
2023-01-11T01:53:50.683Z,0.00
2023-01-11T01:54:50.780Z,0.00
2023-01-11T01:55:50.790Z,0.00
2023-01-11T01:56:50.889Z,0.00
2023-01-11T01:57:50.503Z,0.00
2023-01-11T01:58:50.939Z,0.00
2023-01-11T01:59:50.512Z,0.00
2023-01-11T02:00:50.214Z,0.00
2023-01-11T02:01:50.426Z,0.00
2023-01-11T02:02:51.131Z,0.00
2023-01-11T02:03:51.028Z,0.00
2023-01-11T02:04:50.927Z,0.00
2023-01-11T02:05:51.081Z,0.00
2023-01-11T02:06:51.161Z,0.00
2023-01-11T02:07:50.892Z,0.00
2023-01-11T02:08:51.045Z,0.00
2023-01-11T02:09:50.167Z,0.00
2023-01-11T02:10:50.069Z,0.00
2023-01-11T02:11:50.168Z,0.00
2023-01-11T02:12:50.393Z,0.00
2023-01-11T02:13:50.827Z,0.00
2023-01-11T02:14:50.982Z,0.00
2023-01-11T02:15:51.843Z,0.00
2023-01-11T02:16:50.006Z,0.00
2023-01-11T02:17:50.031Z,0.00
2023-01-11T02:18:50.108Z,0.00
2023-01-11T02:19:50.157Z,0.00
2023-01-11T02:20:50.235Z,0.00
2023-01-11T02:21:50.196Z,0.00
2023-01-11T02:22:50.347Z,0.00
2023-01-11T02:23:50.348Z,0.00
2023-01-11T02:24:50.455Z,0.00
2023-01-11T02:25:50.466Z,0.00
2023-01-11T02:26:50.528Z,0.00
2023-01-11T02:27:50.586Z,0.00
2023-01-11T02:28:50.678Z,0.00
2023-01-11T02:29:50.575Z,0.00
2023-01-11T02:30:50.804Z,0.00
2023-01-11T02:31:50.649Z,0.00
2023-01-11T02:32:50.117Z,0.00
2023-01-11T02:33:50.695Z,0.00
2023-01-11T02:34:50.324Z,0.00
2023-01-11T02:35:50.506Z,0.00
2023-01-11T02:36:50.687Z,0.00
2023-01-11T02:37:50.566Z,0.00
2023-01-11T02:38:50.477Z,0.00
2023-01-11T02:39:50.628Z,0.00
2023-01-11T02:40:50.050Z,0.00
2023-01-11T02:41:50.436Z,0.00
2023-01-11T02:42:50.772Z,0.00
2023-01-11T02:43:50.284Z,0.00
2023-01-11T02:44:49.678Z,0.00
2023-01-11T02:45:49.673Z,0.00
2023-01-11T02:46:49.875Z,0.00
2023-01-11T02:47:49.799Z,0.00
2023-01-11T02:48:49.611Z,0.00
2023-01-11T02:49:49.910Z,0.00
2023-01-11T02:50:50.018Z,0.00
2023-01-11T02:51:49.531Z,0.00
2023-01-11T02:52:49.552Z,0.00
2023-01-11T02:53:49.628Z,0.00
2023-01-11T02:54:49.557Z,0.00
2023-01-11T02:55:49.473Z,0.00
2023-01-11T02:56:49.576Z,0.00
2023-01-11T02:57:49.551Z,0.00
2023-01-11T02:58:49.449Z,0.00
2023-01-11T02:59:49.681Z,0.00
2023-01-11T03:00:49.466Z,0.00
2023-01-11T03:01:49.496Z,0.00
2023-01-11T03:02:49.493Z,0.00
2023-01-11T03:03:49.589Z,0.00
2023-01-11T03:04:49.699Z,0.00
2023-01-11T03:05:49.701Z,0.00
2023-01-11T03:06:49.862Z,0.00
2023-01-11T03:07:49.918Z,0.00
2023-01-11T03:08:49.941Z,0.00
2023-01-11T03:09:50.031Z,0.00
2023-01-11T03:10:49.298Z,0.00
2023-01-11T03:11:49.252Z,0.00
2023-01-11T03:12:50.029Z,0.00
2023-01-11T03:13:49.350Z,0.00
2023-01-11T03:14:49.362Z,0.00
2023-01-11T03:15:49.537Z,0.00
2023-01-11T03:16:49.470Z,0.00
2023-01-11T03:17:49.572Z,0.00
2023-01-11T03:18:49.579Z,0.00
2023-01-11T03:19:49.595Z,0.00
2023-01-11T03:20:49.698Z,0.00
2023-01-11T03:21:49.702Z,0.00
2023-01-11T03:22:49.810Z,0.00
2023-01-11T03:23:49.819Z,0.00
2023-01-11T03:24:49.911Z,0.00
2023-01-11T03:25:49.929Z,0.00
2023-01-11T03:26:49.986Z,0.00
2023-01-11T03:27:49.874Z,0.00
2023-01-11T03:28:49.449Z,0.00
2023-01-11T03:29:49.565Z,0.00
2023-01-11T03:30:49.249Z,0.00
2023-01-11T03:31:49.048Z,0.00
2023-01-11T03:32:50.394Z,0.00
2023-01-11T03:33:49.820Z,0.00
2023-01-11T03:34:50.092Z,0.00
2023-01-11T03:35:49.871Z,0.00
2023-01-11T03:36:49.777Z,0.00
2023-01-11T03:37:49.189Z,0.00
2023-01-11T03:38:48.990Z,0.00
2023-01-11T03:39:50.736Z,0.00
2023-01-11T03:40:49.538Z,0.00
2023-01-11T03:41:48.926Z,0.00
2023-01-11T03:42:48.857Z,0.00
2023-01-11T03:43:48.868Z,0.00
2023-01-11T03:44:48.836Z,0.00
2023-01-11T03:45:48.837Z,0.00
2023-01-11T03:46:48.929Z,0.00
2023-01-11T03:47:48.848Z,0.00
2023-01-11T03:48:48.863Z,0.00
2023-01-11T03:49:48.870Z,0.00
2023-01-11T03:50:48.766Z,0.00
2023-01-11T03:51:48.771Z,0.00
2023-01-11T03:52:48.775Z,0.00
2023-01-11T03:53:48.783Z,0.00
2023-01-11T03:54:48.801Z,0.00
2023-01-11T03:55:48.795Z,0.00
2023-01-11T03:56:48.812Z,0.00
2023-01-11T03:57:48.812Z,0.00
2023-01-11T03:58:48.823Z,0.00
2023-01-11T03:59:48.823Z,0.00
2023-01-11T04:00:48.890Z,0.00
2023-01-11T04:01:48.835Z,0.00
2023-01-11T04:02:48.846Z,0.00
2023-01-11T04:03:48.858Z,0.00
2023-01-11T04:04:48.861Z,0.00
2023-01-11T04:05:48.865Z,0.00
2023-01-11T04:06:48.966Z,0.00
2023-01-11T04:07:48.777Z,0.00
2023-01-11T04:08:48.788Z,0.00
2023-01-11T04:09:48.494Z,0.00
2023-01-11T04:10:48.498Z,0.00
2023-01-11T04:11:48.636Z,0.00
2023-01-11T04:12:48.524Z,0.00
2023-01-11T04:13:48.726Z,0.00
2023-01-11T04:14:48.713Z,0.00
2023-01-11T04:15:48.435Z,0.00
2023-01-11T04:16:48.834Z,0.00
2023-01-11T04:17:48.844Z,0.00
2023-01-11T04:18:48.843Z,0.00
2023-01-11T04:19:48.851Z,0.00
2023-01-11T04:20:48.558Z,0.00
2023-01-11T04:21:48.767Z,0.00
2023-01-11T04:22:48.777Z,0.00
2023-01-11T04:23:48.577Z,0.00
2023-01-11T04:24:48.342Z,0.00
2023-01-11T04:25:49.157Z,0.00
2023-01-11T04:26:48.795Z,0.00
2023-01-11T04:27:48.810Z,0.00
2023-01-11T04:28:48.813Z,0.00
2023-01-11T04:29:48.815Z,0.00
2023-01-11T04:30:48.800Z,0.00
2023-01-11T04:31:48.593Z,0.00
2023-01-11T04:32:48.848Z,0.00
2023-01-11T04:33:48.841Z,0.00
2023-01-11T04:34:48.335Z,0.00
2023-01-11T04:35:48.860Z,0.00
2023-01-11T04:36:48.862Z,0.00
2023-01-11T04:37:48.255Z,0.00
2023-01-11T04:38:48.668Z,0.00
2023-01-11T04:39:48.170Z,0.00
2023-01-11T04:40:48.174Z,0.00
2023-01-11T04:41:48.275Z,0.00
2023-01-11T04:42:48.291Z,0.00
2023-01-11T04:43:48.408Z,0.00
2023-01-11T04:44:48.421Z,0.00
2023-01-11T04:45:48.555Z,0.00
2023-01-11T04:46:48.090Z,0.00
2023-01-11T04:47:48.290Z,0.00
2023-01-11T04:48:48.644Z,0.00
2023-01-11T04:49:48.628Z,0.00
2023-01-11T04:50:48.815Z,0.00
2023-01-11T04:51:48.728Z,0.00
2023-01-11T04:52:48.862Z,0.00
2023-01-11T04:53:48.781Z,0.00
2023-01-11T04:54:48.711Z,0.00
2023-01-11T04:55:48.780Z,0.00
2023-01-11T04:56:48.753Z,0.00
2023-01-11T04:57:48.639Z,0.00
2023-01-11T04:58:48.799Z,0.00
2023-01-11T04:59:48.709Z,0.00
2023-01-11T05:00:48.642Z,0.00
2023-01-11T05:01:48.781Z,0.00
2023-01-11T05:02:48.679Z,0.00
2023-01-11T05:03:48.855Z,0.00
2023-01-11T05:04:48.740Z,0.00
2023-01-11T05:05:48.651Z,0.00
2023-01-11T05:06:48.240Z,0.00
2023-01-11T05:07:47.750Z,0.00
2023-01-11T05:08:47.787Z,0.00
2023-01-11T05:09:47.740Z,0.00
2023-01-11T05:10:48.467Z,0.00
2023-01-11T05:11:47.863Z,0.00
2023-01-11T05:12:47.669Z,0.00
2023-01-11T05:13:47.680Z,0.00
2023-01-11T05:14:47.653Z,0.00
2023-01-11T05:15:47.778Z,0.00
2023-01-11T05:16:47.951Z,0.00
2023-01-11T05:17:47.602Z,0.00
2023-01-11T05:18:47.699Z,0.00
2023-01-11T05:19:47.707Z,0.00
2023-01-11T05:20:47.807Z,0.00
2023-01-11T05:21:48.447Z,0.00
2023-01-11T05:22:47.543Z,0.00
2023-01-11T05:23:47.546Z,0.00
2023-01-11T05:24:48.048Z,0.00
2023-01-11T05:25:48.147Z,0.00
2023-01-11T05:26:47.493Z,0.00
2023-01-11T05:27:47.469Z,0.00
2023-01-11T05:28:47.823Z,0.00
2023-01-11T05:29:47.466Z,0.00
2023-01-11T05:30:47.465Z,0.00
2023-01-11T05:31:47.527Z,0.00
2023-01-11T05:32:47.414Z,0.00
2023-01-11T05:33:47.491Z,0.00
2023-01-11T05:34:47.515Z,0.00
2023-01-11T05:35:47.407Z,0.00
2023-01-11T05:36:48.219Z,0.00
2023-01-11T05:37:47.417Z,0.00
2023-01-11T05:38:47.421Z,0.00
2023-01-11T05:39:47.328Z,0.00
2023-01-11T05:40:47.440Z,0.00
2023-01-11T05:41:47.435Z,0.00
2023-01-11T05:42:47.444Z,0.00
2023-01-11T05:43:47.461Z,0.00
2023-01-11T05:44:47.466Z,0.00
2023-01-11T05:45:47.484Z,0.00
2023-01-11T05:46:47.372Z,0.00
2023-01-11T05:47:47.479Z,0.00
2023-01-11T05:48:47.489Z,0.00
2023-01-11T05:49:47.492Z,0.00
2023-01-11T05:50:47.505Z,0.00
2023-01-11T05:51:47.504Z,0.00
2023-01-11T05:52:47.142Z,0.00
2023-01-11T05:53:47.419Z,0.00
2023-01-11T05:54:47.423Z,0.00
2023-01-11T05:55:47.424Z,0.00
2023-01-11T05:56:47.443Z,0.00
2023-01-11T05:57:47.333Z,0.00
2023-01-11T05:58:47.246Z,0.00
2023-01-11T05:59:47.461Z,0.00
2023-01-11T06:00:47.363Z,0.00
2023-01-11T06:01:47.414Z,0.00
2023-01-11T06:02:47.601Z,0.00
2023-01-11T06:03:47.484Z,0.00
2023-01-11T06:04:47.594Z,0.00
2023-01-11T06:05:47.021Z,0.00
2023-01-11T06:06:47.079Z,0.00
2023-01-11T06:07:47.100Z,0.00
2023-01-11T06:08:47.264Z,0.00
2023-01-11T06:09:46.928Z,0.00
2023-01-11T06:10:47.775Z,0.00
2023-01-11T06:11:47.221Z,0.00
2023-01-11T06:12:47.333Z,0.00
2023-01-11T06:13:47.442Z,0.00
2023-01-11T06:14:47.472Z,0.00
2023-01-11T06:15:47.479Z,0.00
2023-01-11T06:16:47.431Z,0.00
2023-01-11T06:17:46.841Z,0.00
2023-01-11T06:18:47.476Z,0.00
2023-01-11T06:19:47.408Z,0.00
2023-01-11T06:20:47.491Z,0.00
2023-01-11T06:21:47.201Z,0.00
2023-01-11T06:22:46.972Z,0.00
2023-01-11T06:23:47.512Z,0.00
2023-01-11T06:24:47.004Z,0.00
2023-01-11T06:25:47.521Z,0.00
2023-01-11T06:26:47.456Z,0.00
2023-01-11T06:27:47.441Z,0.00
2023-01-11T06:28:47.439Z,0.00
2023-01-11T06:29:47.448Z,0.00
2023-01-11T06:30:47.359Z,0.00
2023-01-11T06:31:46.847Z,0.00
2023-01-11T06:32:46.860Z,0.00
2023-01-11T06:33:47.390Z,0.00
2023-01-11T06:34:47.479Z,0.00
2023-01-11T06:35:46.660Z,0.00
2023-01-11T06:36:46.677Z,0.00
2023-01-11T06:37:46.588Z,0.00
2023-01-11T06:38:46.937Z,0.00
2023-01-11T06:39:46.795Z,0.00
2023-01-11T06:40:46.902Z,0.00
2023-01-11T06:41:46.908Z,0.00
2023-01-11T06:42:47.008Z,0.00
2023-01-11T06:43:47.027Z,0.00
2023-01-11T06:44:46.618Z,0.00
2023-01-11T06:45:46.612Z,0.00
2023-01-11T06:46:46.865Z,0.00
2023-01-11T06:47:46.423Z,0.00
2023-01-11T06:48:46.451Z,0.00
2023-01-11T06:49:47.120Z,0.00
2023-01-11T06:50:46.407Z,0.00
2023-01-11T06:51:47.188Z,0.00
2023-01-11T06:52:47.420Z,0.00
2023-01-11T06:53:47.255Z,0.00
2023-01-11T06:54:47.095Z,0.00
2023-01-11T06:55:46.407Z,0.00
2023-01-11T06:56:46.335Z,0.00
2023-01-11T06:57:47.153Z,0.00
2023-01-11T06:58:47.621Z,0.00
2023-01-11T06:59:47.726Z,0.00
2023-01-11T07:00:47.074Z,0.00
2023-01-11T07:01:47.043Z,0.00
2023-01-11T07:02:58.516Z,1.00
2023-01-11T07:03:48.949Z,0.00
2023-01-11T07:04:46.219Z,1.00
2023-01-11T07:05:46.257Z,1.00
2023-01-11T07:06:46.374Z,1.00
2023-01-11T07:07:46.377Z,1.00
2023-01-11T07:08:48.414Z,2.00
2023-01-11T07:09:46.277Z,2.00
2023-01-11T07:10:46.479Z,2.00
2023-01-11T07:11:46.697Z,3.00
2023-01-11T07:12:46.603Z,3.00
2023-01-11T07:13:46.747Z,1.00
2023-01-11T07:14:46.708Z,1.00
2023-01-11T07:15:46.857Z,4.00
2023-01-11T07:16:46.207Z,4.00
2023-01-11T07:17:46.725Z,7.00
2023-01-11T07:18:46.765Z,5.00
2023-01-11T07:19:46.150Z,4.00
2023-01-11T07:20:45.921Z,5.00
2023-01-11T07:21:45.940Z,10.00
2023-01-11T07:22:46.529Z,8.00
2023-01-11T07:23:45.952Z,8.00
2023-01-11T07:24:48.474Z,10.00
2023-01-11T07:25:45.954Z,14.00
2023-01-11T07:26:45.901Z,15.00
2023-01-11T07:27:45.875Z,16.00
2023-01-11T07:28:45.826Z,17.00
2023-01-11T07:29:46.092Z,17.00
2023-01-11T07:30:57.512Z,19.00
2023-01-11T07:31:47.534Z,23.00
2023-01-11T07:32:46.012Z,22.00
2023-01-11T07:33:46.152Z,24.00
2023-01-11T07:34:45.816Z,25.00
2023-01-11T07:35:45.845Z,26.00
2023-01-11T07:36:45.934Z,31.00
2023-01-11T07:37:45.714Z,29.00
2023-01-11T07:38:45.703Z,31.00
2023-01-11T07:39:46.058Z,33.00
2023-01-11T07:40:46.076Z,32.00
2023-01-11T07:41:46.171Z,39.00
2023-01-11T07:42:46.302Z,41.00
2023-01-11T07:43:46.401Z,45.00
2023-01-11T07:44:46.409Z,50.00
2023-01-11T07:45:47.150Z,53.00
2023-01-11T07:46:45.816Z,57.00
2023-01-11T07:47:46.430Z,58.00
2023-01-11T07:48:46.322Z,67.00
2023-01-11T07:49:46.020Z,70.00
2023-01-11T07:50:46.374Z,69.00
2023-01-11T07:51:46.274Z,70.00
2023-01-11T07:52:46.469Z,72.00
2023-01-11T07:53:46.343Z,70.00
2023-01-11T07:54:46.973Z,72.00
2023-01-11T07:55:46.406Z,73.00
2023-01-11T07:56:46.309Z,76.00
2023-01-11T07:57:46.230Z,81.00
2023-01-11T07:58:46.377Z,84.00
2023-01-11T07:59:45.781Z,89.00
2023-01-11T08:00:46.250Z,94.00
2023-01-11T08:01:45.510Z,97.00
2023-01-11T08:02:45.984Z,99.00
2023-01-11T08:03:45.648Z,96.00
2023-01-11T08:04:45.581Z,93.00
2023-01-11T08:05:45.704Z,86.00
2023-01-11T08:06:45.375Z,77.00
2023-01-11T08:07:45.588Z,69.00
2023-01-11T08:08:45.755Z,66.00
2023-01-11T08:09:46.159Z,70.00
2023-01-11T08:10:46.274Z,79.00
2023-01-11T08:11:45.363Z,91.00
2023-01-11T08:12:45.973Z,91.00
2023-01-11T08:13:45.284Z,111.00
2023-01-11T08:14:46.083Z,122.00
2023-01-11T08:15:46.215Z,156.00
2023-01-11T08:16:45.329Z,145.00
2023-01-11T08:17:45.183Z,153.00
2023-01-11T08:18:45.356Z,130.00
2023-01-11T08:19:45.918Z,130.00
2023-01-11T08:20:45.390Z,178.00
2023-01-11T08:21:45.784Z,201.00
2023-01-11T08:22:45.140Z,247.00
2023-01-11T08:23:45.353Z,231.00
2023-01-11T08:24:45.133Z,227.00
2023-01-11T08:25:45.207Z,173.00
2023-01-11T08:26:45.150Z,182.00
2023-01-11T08:27:45.207Z,222.00
2023-01-11T08:28:45.826Z,210.00
2023-01-11T08:29:45.830Z,194.00
2023-01-11T08:30:45.894Z,256.00
2023-01-11T08:31:45.020Z,231.00
2023-01-11T08:32:45.096Z,201.00
2023-01-11T08:33:45.095Z,211.00
2023-01-11T08:34:45.125Z,217.00
2023-01-11T08:35:44.976Z,166.00
2023-01-11T08:36:45.294Z,138.00
2023-01-11T08:37:45.340Z,146.00
2023-01-11T08:38:45.071Z,137.00
2023-01-11T08:39:45.449Z,196.00
2023-01-11T08:40:45.437Z,280.00
2023-01-11T08:41:45.274Z,267.00
2023-01-11T08:42:45.591Z,305.00
2023-01-11T08:43:45.671Z,294.00
2023-01-11T08:44:44.867Z,241.00
2023-01-11T08:45:45.762Z,191.00
2023-01-11T08:46:44.902Z,166.00
2023-01-11T08:47:45.109Z,158.00
2023-01-11T08:48:45.707Z,141.00
2023-01-11T08:49:45.682Z,157.00
2023-01-11T08:50:44.855Z,238.00
2023-01-11T08:51:45.638Z,457.00
2023-01-11T08:52:45.397Z,380.00
2023-01-11T08:53:45.463Z,381.00
2023-01-11T08:54:44.950Z,424.00
2023-01-11T08:55:46.102Z,441.00
2023-01-11T08:56:45.440Z,400.00
2023-01-11T08:57:44.749Z,398.00
2023-01-11T08:58:45.625Z,345.00
2023-01-11T08:59:45.401Z,317.00
2023-01-11T09:00:45.548Z,473.00
2023-01-11T09:01:44.802Z,471.00
2023-01-11T09:02:44.675Z,402.00
2023-01-11T09:03:44.791Z,643.00
2023-01-11T09:04:44.778Z,521.00
2023-01-11T09:05:46.023Z,418.00
2023-01-11T09:06:44.889Z,377.00
2023-01-11T09:07:45.010Z,362.00
2023-01-11T09:08:45.002Z,439.00
2023-01-11T09:09:45.146Z,497.00
2023-01-11T09:10:45.116Z,421.00
2023-01-11T09:11:45.238Z,375.00
2023-01-11T09:12:45.239Z,343.00
2023-01-11T09:13:44.737Z,504.00
2023-01-11T09:14:45.235Z,654.00
2023-01-11T09:15:45.418Z,562.00
2023-01-11T09:16:44.417Z,544.00
2023-01-11T09:17:44.921Z,490.00
2023-01-11T09:18:45.347Z,376.00
2023-01-11T09:19:44.567Z,578.00
2023-01-11T09:20:44.367Z,575.00
2023-01-11T09:21:45.709Z,502.00
2023-01-11T09:22:45.296Z,584.00
2023-01-11T09:23:44.469Z,581.00
2023-01-11T09:24:45.041Z,564.00
2023-01-11T09:25:44.302Z,597.00
2023-01-11T09:26:44.367Z,601.00
2023-01-11T09:27:44.325Z,661.00
2023-01-11T09:28:44.356Z,631.00
2023-01-11T09:29:44.895Z,733.00
2023-01-11T09:30:44.246Z,606.00
2023-01-11T09:31:44.238Z,705.00
2023-01-11T09:32:44.194Z,724.00
2023-01-11T09:33:44.385Z,651.00
2023-01-11T09:34:45.970Z,626.00
2023-01-11T09:35:44.176Z,397.00
2023-01-11T09:36:44.274Z,586.00
2023-01-11T09:37:44.134Z,414.00
2023-01-11T09:38:44.295Z,299.00
2023-01-11T09:39:44.294Z,276.00
2023-01-11T09:40:44.297Z,313.00
2023-01-11T09:41:44.106Z,467.00
2023-01-11T09:42:44.093Z,335.00
2023-01-11T09:43:44.055Z,284.00
2023-01-11T09:44:44.106Z,527.00
2023-01-11T09:45:44.154Z,674.00
2023-01-11T09:46:44.286Z,667.00
2023-01-11T09:47:44.037Z,644.00
2023-01-11T09:48:44.113Z,648.00
2023-01-11T09:49:44.267Z,571.00
2023-01-11T09:50:44.184Z,706.00
2023-01-11T09:51:43.953Z,694.00
2023-01-11T09:52:43.956Z,648.00
2023-01-11T09:53:43.932Z,643.00
2023-01-11T09:54:43.923Z,630.00
2023-01-11T09:55:43.947Z,652.00
2023-01-11T09:56:44.050Z,662.00
2023-01-11T09:57:44.221Z,582.00
2023-01-11T09:58:43.936Z,557.00
2023-01-11T09:59:43.964Z,603.00
2023-01-11T10:00:44.125Z,636.00
2023-01-11T10:01:43.847Z,625.00
2023-01-11T10:02:43.814Z,556.00
2023-01-11T10:03:44.033Z,503.00
2023-01-11T10:04:43.933Z,631.00
2023-01-11T10:05:44.146Z,770.00
2023-01-11T10:06:44.401Z,841.00
2023-01-11T10:07:43.750Z,884.00
2023-01-11T10:18:29.665Z,362.00
2023-01-11T10:18:32.762Z,558.00
2023-01-11T10:18:33.477Z,773.00
2023-01-11T10:18:39.581Z,335.00
2023-01-11T10:19:12.229Z,586.00
2023-01-11T10:19:45.029Z,698.00
2023-01-11T10:20:44.243Z,601.00
2023-01-11T10:21:44.346Z,465.00
2023-01-11T10:22:44.271Z,500.00
2023-01-11T10:23:43.630Z,513.00
2023-01-11T10:24:43.985Z,384.00
2023-01-11T10:25:44.284Z,152.00
2023-01-11T10:26:43.699Z,277.00
2023-01-11T10:27:44.206Z,504.00
2023-01-11T10:28:43.507Z,711.00
2023-01-11T10:29:43.502Z,779.00
2023-01-11T10:30:43.504Z,827.00
2023-01-11T10:31:43.850Z,770.00
2023-01-11T10:32:43.664Z,597.00
2023-01-11T10:33:43.512Z,329.00
2023-01-11T10:34:43.731Z,328.00
2023-01-11T10:35:43.732Z,366.00
2023-01-11T10:36:43.378Z,287.00
2023-01-11T10:37:43.562Z,646.00
2023-01-11T10:38:43.355Z,592.00
2023-01-11T10:39:44.064Z,396.00
2023-01-11T10:40:43.587Z,308.00
2023-01-11T10:41:43.543Z,414.00
2023-01-11T10:42:44.157Z,316.00
2023-01-11T10:43:44.188Z,600.00
2023-01-11T10:44:44.010Z,461.00
2023-01-11T10:45:44.119Z,289.00
2023-01-11T10:46:43.476Z,412.00
2023-01-11T10:47:43.422Z,405.00
2023-01-11T10:48:43.361Z,322.00
2023-01-11T10:49:45.969Z,299.00
2023-01-11T10:50:43.939Z,325.00
2023-01-11T10:51:43.211Z,313.00
2023-01-11T10:52:43.415Z,112.00
2023-01-11T10:53:43.911Z,299.00
2023-01-11T10:54:46.137Z,604.00
2023-01-11T10:55:43.988Z,1041.00
2023-01-11T10:57:02.882Z,1253.00
2023-01-11T10:58:00.177Z,1155.00
2023-01-11T10:58:44.155Z,913.00
2023-01-11T10:59:43.260Z,778.00
2023-01-11T11:00:43.260Z,937.00
2023-01-11T11:01:43.042Z,996.00
2023-01-11T11:02:43.023Z,894.00
2023-01-11T11:03:43.325Z,638.00
2023-01-11T11:04:43.481Z,463.00
2023-01-11T11:05:43.422Z,373.00
2023-01-11T11:06:43.578Z,156.00
2023-01-11T11:07:43.528Z,231.00
2023-01-11T11:08:43.739Z,386.00
2023-01-11T11:09:43.639Z,145.00
2023-01-11T11:10:43.129Z,628.00
2023-01-11T11:11:42.936Z,831.00
2023-01-11T11:12:43.150Z,498.00
2023-01-11T11:13:43.602Z,936.00
2023-01-11T11:14:42.883Z,1424.00
2023-01-11T11:15:43.589Z,1125.00
2023-01-11T11:16:42.839Z,620.00
2023-01-11T11:17:43.526Z,736.00
2023-01-11T11:18:42.971Z,984.00
2023-01-11T11:19:43.010Z,1254.00
2023-01-11T11:20:42.828Z,1206.00
2023-01-11T11:21:43.624Z,840.00
2023-01-11T11:22:42.852Z,482.00
2023-01-11T11:23:43.008Z,599.00
2023-01-11T11:24:43.596Z,553.00
2023-01-11T11:25:43.507Z,902.00
2023-01-11T11:26:43.604Z,460.00
2023-01-11T11:27:43.497Z,744.00
2023-01-11T11:28:43.240Z,642.00
2023-01-11T11:29:42.764Z,618.00
2023-01-11T11:30:43.430Z,629.00
2023-01-11T11:31:42.932Z,736.00
2023-01-11T11:32:42.907Z,868.00
2023-01-11T11:33:42.869Z,904.00
2023-01-11T11:34:42.919Z,1049.00
2023-01-11T11:35:42.968Z,1078.00
2023-01-11T11:36:43.158Z,834.00
2023-01-11T11:37:43.068Z,761.00
2023-01-11T11:38:42.726Z,1000.00
2023-01-11T11:39:43.189Z,968.00
2023-01-11T11:40:42.538Z,864.00
2023-01-11T11:41:42.969Z,879.00
2023-01-11T11:42:43.309Z,812.00
2023-01-11T11:43:43.189Z,705.00
2023-01-11T11:44:42.461Z,737.00
2023-01-11T11:45:43.187Z,692.00
2023-01-11T11:46:43.236Z,587.00
2023-01-11T11:47:43.368Z,801.00
2023-01-11T11:48:43.287Z,834.00
2023-01-11T11:49:43.141Z,647.00
2023-01-11T11:50:45.092Z,624.00
2023-01-11T11:51:43.296Z,673.00
2023-01-11T11:52:42.464Z,554.00
2023-01-11T11:53:42.694Z,529.00
2023-01-11T11:54:43.872Z,499.00
2023-01-11T11:55:42.833Z,591.00
2023-01-11T11:56:42.385Z,602.00
2023-01-11T11:57:42.877Z,621.00
2023-01-11T11:58:43.063Z,394.00
2023-01-11T11:59:42.280Z,583.00
2023-01-11T12:00:42.337Z,635.00
2023-01-11T12:01:42.237Z,825.00
2023-01-11T12:02:42.289Z,282.00
2023-01-11T12:03:42.338Z,565.00
2023-01-11T12:04:42.462Z,852.00
2023-01-11T12:05:42.488Z,750.00
2023-01-11T12:06:42.229Z,738.00
2023-01-11T12:07:53.880Z,1000.00
2023-01-11T12:08:43.146Z,953.00
2023-01-11T12:09:42.138Z,941.00
2023-01-11T12:10:42.218Z,950.00
2023-01-11T12:11:42.296Z,1017.00
2023-01-11T12:12:42.099Z,1176.00
2023-01-11T12:13:42.387Z,1069.00
2023-01-11T12:14:42.402Z,927.00
2023-01-11T12:15:42.098Z,610.00
2023-01-11T12:16:42.577Z,634.00
2023-01-11T12:17:42.072Z,750.00
2023-01-11T12:18:42.007Z,738.00
2023-01-11T12:19:42.713Z,630.00
2023-01-11T12:20:42.441Z,696.00
2023-01-11T12:21:42.250Z,758.00
2023-01-11T12:22:42.075Z,709.00
2023-01-11T12:23:42.706Z,673.00
2023-01-11T12:24:42.952Z,852.00
2023-01-11T12:25:42.767Z,903.00
2023-01-11T12:26:42.335Z,856.00
2023-01-11T12:27:41.896Z,984.00
2023-01-11T12:28:41.899Z,866.00
2023-01-11T12:29:42.430Z,1177.00
2023-01-11T12:30:44.136Z,906.00
2023-01-11T12:31:42.018Z,852.00
2023-01-11T12:32:42.103Z,1000.00
2023-01-11T12:33:42.129Z,1108.00
2023-01-11T12:34:42.195Z,1228.00
2023-01-11T12:35:42.358Z,1265.00
2023-01-11T12:36:41.803Z,977.00
2023-01-11T12:37:42.356Z,1030.00
2023-01-11T12:38:42.438Z,1102.00
2023-01-11T12:39:42.464Z,1129.00
2023-01-11T12:40:42.517Z,1126.00
2023-01-11T12:41:42.576Z,1108.00
2023-01-11T12:42:42.639Z,1132.00
2023-01-11T12:43:42.593Z,1177.00
2023-01-11T12:44:42.456Z,1044.00
2023-01-11T12:45:42.659Z,1347.00
2023-01-11T12:46:42.952Z,1332.00
2023-01-11T12:47:44.712Z,1346.00
2023-01-11T12:48:42.034Z,1055.00
2023-01-11T12:49:41.621Z,1201.00
2023-01-11T12:50:42.440Z,1116.00
2023-01-11T12:51:42.172Z,884.00
2023-01-11T12:52:41.571Z,867.00
2023-01-11T12:53:42.107Z,763.00
2023-01-11T12:54:41.606Z,819.00
2023-01-11T12:55:42.435Z,1125.00
2023-01-11T12:56:42.376Z,1034.00
2023-01-11T12:57:41.526Z,650.00
2023-01-11T12:58:41.559Z,574.00
2023-01-11T12:59:41.462Z,879.00
2023-01-11T13:00:41.674Z,815.00
2023-01-11T13:01:41.839Z,456.00
2023-01-11T13:02:41.844Z,409.00